sensor_id;sensor_type;location;lat;lon;timestamp;P1;durP1;ratioP1;P2;durP2;ratioP2
79047;SDS011;68680;50.764;6.120;2023-11-19T00:00:06;0.85;;;0.85;;
79047;SDS011;68680;50.764;6.120;2023-11-19T00:02:32;5.00;;;0.70;;
79047;SDS011;68680;50.764;6.120;2023-11-19T00:04:57;0.73;;;0.70;;
79047;SDS011;68680;50.764;6.120;2023-11-19T00:07:23;1.55;;;0.80;;
79047;SDS011;68680;50.764;6.120;2023-11-19T00:09:49;0.70;;;0.70;;
79047;SDS011;68680;50.764;6.120;2023-11-19T00:12:14;3.90;;;0.70;;
79047;SDS011;68680;50.764;6.120;2023-11-19T00:14:41;0.73;;;0.70;;
79047;SDS011;68680;50.764;6.120;2023-11-19T00:17:07;3.13;;;1.00;;
79047;SDS011;68680;50.764;6.120;2023-11-19T00:19:32;0.98;;;0.90;;
79047;SDS011;68680;50.764;6.120;2023-11-19T00:21:58;1.23;;;0.80;;
79047;SDS011;68680;50.764;6.120;2023-11-19T00:24:23;1.27;;;1.15;;
79047;SDS011;68680;50.764;6.120;2023-11-19T00:26:49;1.30;;;0.80;;
79047;SDS011;68680;50.764;6.120;2023-11-19T00:29:15;1.27;;;1.13;;
79047;SDS011;68680;50.764;6.120;2023-11-19T00:31:42;1.10;;;1.00;;
79047;SDS011;68680;50.764;6.120;2023-11-19T00:34:07;1.15;;;0.90;;
79047;SDS011;68680;50.764;6.120;2023-11-19T00:36:33;1.83;;;1.30;;
79047;SDS011;68680;50.764;6.120;2023-11-19T00:38:58;1.40;;;1.30;;
79047;SDS011;68680;50.764;6.120;2023-11-19T00:41:24;6.00;;;2.17;;
79047;SDS011;68680;50.764;6.120;2023-11-19T00:43:49;3.63;;;1.83;;
79047;SDS011;68680;50.764;6.120;2023-11-19T00:46:15;5.53;;;1.92;;
79047;SDS011;68680;50.764;6.120;2023-11-19T00:48:43;3.08;;;2.38;;
79047;SDS011;68680;50.764;6.120;2023-11-19T00:51:11;6.55;;;2.00;;
79047;SDS011;68680;50.764;6.120;2023-11-19T00:53:37;5.97;;;2.15;;
79047;SDS011;68680;50.764;6.120;2023-11-19T00:56:02;3.80;;;1.88;;
79047;SDS011;68680;50.764;6.120;2023-11-19T00:58:28;3.72;;;2.35;;
79047;SDS011;68680;50.764;6.120;2023-11-19T01:00:54;3.03;;;2.22;;
79047;SDS011;68680;50.764;6.120;2023-11-19T01:03:19;6.15;;;2.15;;
79047;SDS011;68680;50.764;6.120;2023-11-19T01:05:46;3.90;;;2.08;;
79047;SDS011;68680;50.764;6.120;2023-11-19T01:08:12;4.57;;;2.22;;
79047;SDS011;68680;50.764;6.120;2023-11-19T01:10:37;4.60;;;1.92;;
79047;SDS011;68680;50.764;6.120;2023-11-19T01:13:03;2.65;;;2.13;;
79047;SDS011;68680;50.764;6.120;2023-11-19T01:15:29;3.40;;;1.83;;
79047;SDS011;68680;50.764;6.120;2023-11-19T01:17:54;1.85;;;1.42;;
79047;SDS011;68680;50.764;6.120;2023-11-19T01:20:20;3.95;;;1.70;;
79047;SDS011;68680;50.764;6.120;2023-11-19T01:22:47;4.72;;;1.95;;
79047;SDS011;68680;50.764;6.120;2023-11-19T01:25:12;5.57;;;1.73;;
79047;SDS011;68680;50.764;6.120;2023-11-19T01:27:38;4.85;;;2.08;;
79047;SDS011;68680;50.764;6.120;2023-11-19T01:30:04;3.72;;;2.17;;
79047;SDS011;68680;50.764;6.120;2023-11-19T01:32:30;3.10;;;1.83;;
79047;SDS011;68680;50.764;6.120;2023-11-19T01:34:56;7.93;;;1.77;;
79047;SDS011;68680;50.764;6.120;2023-11-19T01:37:22;3.67;;;2.33;;
79047;SDS011;68680;50.764;6.120;2023-11-19T01:39:49;6.97;;;1.95;;
79047;SDS011;68680;50.764;6.120;2023-11-19T01:42:14;3.90;;;2.13;;
79047;SDS011;68680;50.764;6.120;2023-11-19T01:44:40;5.53;;;2.17;;
79047;SDS011;68680;50.764;6.120;2023-11-19T01:47:05;4.68;;;1.92;;
79047;SDS011;68680;50.764;6.120;2023-11-19T01:49:32;5.97;;;2.10;;
79047;SDS011;68680;50.764;6.120;2023-11-19T01:51:57;9.75;;;2.40;;
79047;SDS011;68680;50.764;6.120;2023-11-19T01:54:24;5.20;;;2.35;;
79047;SDS011;68680;50.764;6.120;2023-11-19T01:56:51;10.60;;;2.28;;
79047;SDS011;68680;50.764;6.120;2023-11-19T01:59:18;10.02;;;2.67;;
79047;SDS011;68680;50.764;6.120;2023-11-19T02:01:44;10.77;;;2.22;;
79047;SDS011;68680;50.764;6.120;2023-11-19T02:04:10;9.45;;;2.28;;
79047;SDS011;68680;50.764;6.120;2023-11-19T02:06:37;11.93;;;2.35;;
79047;SDS011;68680;50.764;6.120;2023-11-19T02:09:05;16.33;;;4.35;;
79047;SDS011;68680;50.764;6.120;2023-11-19T02:11:30;14.55;;;2.55;;
79047;SDS011;68680;50.764;6.120;2023-11-19T02:13:58;7.25;;;2.13;;
79047;SDS011;68680;50.764;6.120;2023-11-19T02:16:23;8.60;;;2.42;;
79047;SDS011;68680;50.764;6.120;2023-11-19T02:18:49;6.85;;;2.60;;
79047;SDS011;68680;50.764;6.120;2023-11-19T02:21:14;10.68;;;2.53;;
79047;SDS011;68680;50.764;6.120;2023-11-19T02:23:40;6.05;;;2.20;;
79047;SDS011;68680;50.764;6.120;2023-11-19T02:26:10;12.48;;;3.30;;
79047;SDS011;68680;50.764;6.120;2023-11-19T02:28:41;12.38;;;2.80;;
79047;SDS011;68680;50.764;6.120;2023-11-19T02:31:07;7.15;;;2.33;;
79047;SDS011;68680;50.764;6.120;2023-11-19T02:33:32;10.00;;;2.95;;
79047;SDS011;68680;50.764;6.120;2023-11-19T02:35:58;12.60;;;2.42;;
79047;SDS011;68680;50.764;6.120;2023-11-19T02:38:24;13.52;;;3.78;;
79047;SDS011;68680;50.764;6.120;2023-11-19T02:40:49;6.72;;;2.58;;
79047;SDS011;68680;50.764;6.120;2023-11-19T02:43:15;10.00;;;2.85;;
79047;SDS011;68680;50.764;6.120;2023-11-19T02:45:42;7.28;;;2.25;;
79047;SDS011;68680;50.764;6.120;2023-11-19T02:48:08;12.38;;;2.95;;
79047;SDS011;68680;50.764;6.120;2023-11-19T02:50:33;6.10;;;2.40;;
79047;SDS011;68680;50.764;6.120;2023-11-19T02:52:59;10.18;;;2.78;;
79047;SDS011;68680;50.764;6.120;2023-11-19T02:55:24;14.35;;;3.80;;
79047;SDS011;68680;50.764;6.120;2023-11-19T02:57:50;10.55;;;2.50;;
79047;SDS011;68680;50.764;6.120;2023-11-19T03:00:17;14.30;;;3.28;;
79047;SDS011;68680;50.764;6.120;2023-11-19T03:02:44;9.60;;;2.65;;
79047;SDS011;68680;50.764;6.120;2023-11-19T03:05:10;8.50;;;2.10;;
79047;SDS011;68680;50.764;6.120;2023-11-19T03:07:36;7.03;;;2.22;;
79047;SDS011;68680;50.764;6.120;2023-11-19T03:10:01;7.43;;;2.03;;
79047;SDS011;68680;50.764;6.120;2023-11-19T03:12:27;5.85;;;1.98;;
79047;SDS011;68680;50.764;6.120;2023-11-19T03:14:53;11.73;;;2.60;;
79047;SDS011;68680;50.764;6.120;2023-11-19T03:17:19;10.32;;;2.25;;
79047;SDS011;68680;50.764;6.120;2023-11-19T03:19:46;10.25;;;2.53;;
79047;SDS011;68680;50.764;6.120;2023-11-19T03:22:12;9.95;;;2.88;;
79047;SDS011;68680;50.764;6.120;2023-11-19T03:24:38;10.30;;;2.00;;
79047;SDS011;68680;50.764;6.120;2023-11-19T03:27:03;14.45;;;2.35;;
79047;SDS011;68680;50.764;6.120;2023-11-19T03:29:29;12.82;;;3.28;;
79047;SDS011;68680;50.764;6.120;2023-11-19T03:31:55;12.43;;;3.05;;
79047;SDS011;68680;50.764;6.120;2023-11-19T03:34:20;12.15;;;3.22;;
79047;SDS011;68680;50.764;6.120;2023-11-19T03:36:47;12.52;;;3.33;;
79047;SDS011;68680;50.764;6.120;2023-11-19T03:39:13;13.63;;;3.15;;
79047;SDS011;68680;50.764;6.120;2023-11-19T03:41:38;12.77;;;3.65;;
79047;SDS011;68680;50.764;6.120;2023-11-19T03:44:04;9.63;;;2.83;;
79047;SDS011;68680;50.764;6.120;2023-11-19T03:46:30;11.38;;;2.78;;
79047;SDS011;68680;50.764;6.120;2023-11-19T03:48:55;8.95;;;2.95;;
79047;SDS011;68680;50.764;6.120;2023-11-19T03:51:21;14.98;;;3.35;;
79047;SDS011;68680;50.764;6.120;2023-11-19T03:53:48;9.07;;;2.92;;
79047;SDS011;68680;50.764;6.120;2023-11-19T03:56:13;10.73;;;2.67;;
79047;SDS011;68680;50.764;6.120;2023-11-19T03:58:39;13.80;;;2.83;;
79047;SDS011;68680;50.764;6.120;2023-11-19T04:01:05;9.93;;;3.40;;
79047;SDS011;68680;50.764;6.120;2023-11-19T04:03:31;15.98;;;2.85;;
79047;SDS011;68680;50.764;6.120;2023-11-19T04:05:57;11.45;;;2.53;;
79047;SDS011;68680;50.764;6.120;2023-11-19T04:08:22;11.90;;;3.03;;
79047;SDS011;68680;50.764;6.120;2023-11-19T04:10:49;9.15;;;2.47;;
79047;SDS011;68680;50.764;6.120;2023-11-19T04:13:15;11.13;;;3.28;;
79047;SDS011;68680;50.764;6.120;2023-11-19T04:15:40;19.77;;;2.75;;
79047;SDS011;68680;50.764;6.120;2023-11-19T04:18:06;7.63;;;2.40;;
79047;SDS011;68680;50.764;6.120;2023-11-19T04:20:32;18.83;;;2.85;;
79047;SDS011;68680;50.764;6.120;2023-11-19T04:22:57;14.93;;;2.30;;
79047;SDS011;68680;50.764;6.120;2023-11-19T04:25:23;12.05;;;2.67;;
79047;SDS011;68680;50.764;6.120;2023-11-19T04:27:50;18.55;;;2.80;;
79047;SDS011;68680;50.764;6.120;2023-11-19T04:30:16;16.50;;;2.90;;
79047;SDS011;68680;50.764;6.120;2023-11-19T04:32:41;16.38;;;2.63;;
79047;SDS011;68680;50.764;6.120;2023-11-19T04:35:07;14.00;;;3.13;;
79047;SDS011;68680;50.764;6.120;2023-11-19T04:37:33;20.75;;;2.75;;
79047;SDS011;68680;50.764;6.120;2023-11-19T04:39:59;15.00;;;2.95;;
79047;SDS011;68680;50.764;6.120;2023-11-19T04:42:24;14.32;;;3.28;;
79047;SDS011;68680;50.764;6.120;2023-11-19T04:44:51;16.23;;;2.70;;
79047;SDS011;68680;50.764;6.120;2023-11-19T04:47:17;22.25;;;2.72;;
79047;SDS011;68680;50.764;6.120;2023-11-19T04:49:42;18.70;;;2.50;;
79047;SDS011;68680;50.764;6.120;2023-11-19T04:52:08;22.90;;;2.97;;
79047;SDS011;68680;50.764;6.120;2023-11-19T04:54:34;18.15;;;2.95;;
79047;SDS011;68680;50.764;6.120;2023-11-19T04:56:59;14.05;;;2.22;;
79047;SDS011;68680;50.764;6.120;2023-11-19T04:59:25;16.35;;;3.03;;
79047;SDS011;68680;50.764;6.120;2023-11-19T05:01:52;15.00;;;2.20;;
79047;SDS011;68680;50.764;6.120;2023-11-19T05:04:17;15.85;;;3.38;;
79047;SDS011;68680;50.764;6.120;2023-11-19T05:06:43;17.55;;;3.40;;
79047;SDS011;68680;50.764;6.120;2023-11-19T05:09:08;23.15;;;3.30;;
79047;SDS011;68680;50.764;6.120;2023-11-19T05:11:34;21.17;;;3.50;;
79047;SDS011;68680;50.764;6.120;2023-11-19T05:14:01;20.33;;;2.83;;
79047;SDS011;68680;50.764;6.120;2023-11-19T05:16:27;22.38;;;2.88;;
79047;SDS011;68680;50.764;6.120;2023-11-19T05:18:54;16.83;;;2.55;;
79047;SDS011;68680;50.764;6.120;2023-11-19T05:21:19;14.23;;;2.67;;
79047;SDS011;68680;50.764;6.120;2023-11-19T05:23:45;18.15;;;3.30;;
79047;SDS011;68680;50.764;6.120;2023-11-19T05:26:16;17.58;;;3.00;;
79047;SDS011;68680;50.764;6.120;2023-11-19T05:28:42;22.63;;;3.38;;
79047;SDS011;68680;50.764;6.120;2023-11-19T05:31:08;19.60;;;3.35;;
79047;SDS011;68680;50.764;6.120;2023-11-19T05:33:34;16.92;;;2.70;;
79047;SDS011;68680;50.764;6.120;2023-11-19T05:36:00;16.08;;;2.67;;
79047;SDS011;68680;50.764;6.120;2023-11-19T05:38:26;20.02;;;3.85;;
79047;SDS011;68680;50.764;6.120;2023-11-19T05:40:52;16.75;;;2.70;;
79047;SDS011;68680;50.764;6.120;2023-11-19T05:43:17;24.00;;;3.67;;
79047;SDS011;68680;50.764;6.120;2023-11-19T05:45:43;25.00;;;4.45;;
79047;SDS011;68680;50.764;6.120;2023-11-19T05:48:08;15.63;;;2.80;;
79047;SDS011;68680;50.764;6.120;2023-11-19T05:50:34;19.13;;;3.22;;
79047;SDS011;68680;50.764;6.120;2023-11-19T05:53:01;38.67;;;3.83;;
79047;SDS011;68680;50.764;6.120;2023-11-19T05:55:26;20.45;;;3.38;;
79047;SDS011;68680;50.764;6.120;2023-11-19T05:57:52;14.65;;;3.25;;
79047;SDS011;68680;50.764;6.120;2023-11-19T06:00:18;21.98;;;2.92;;
79047;SDS011;68680;50.764;6.120;2023-11-19T06:02:43;17.70;;;2.58;;
79047;SDS011;68680;50.764;6.120;2023-11-19T06:05:09;22.10;;;3.45;;
79047;SDS011;68680;50.764;6.120;2023-11-19T06:07:34;21.98;;;3.65;;
79047;SDS011;68680;50.764;6.120;2023-11-19T06:10:02;17.83;;;3.50;;
79047;SDS011;68680;50.764;6.120;2023-11-19T06:12:28;13.07;;;2.80;;
79047;SDS011;68680;50.764;6.120;2023-11-19T06:14:53;20.50;;;2.58;;
79047;SDS011;68680;50.764;6.120;2023-11-19T06:17:19;24.00;;;4.90;;
79047;SDS011;68680;50.764;6.120;2023-11-19T06:19:45;17.83;;;3.05;;
79047;SDS011;68680;50.764;6.120;2023-11-19T06:22:10;16.83;;;2.92;;
79047;SDS011;68680;50.764;6.120;2023-11-19T06:24:36;23.65;;;3.67;;
79047;SDS011;68680;50.764;6.120;2023-11-19T06:27:03;20.20;;;3.22;;
79047;SDS011;68680;50.764;6.120;2023-11-19T06:29:29;20.77;;;2.90;;
79047;SDS011;68680;50.764;6.120;2023-11-19T06:31:54;13.07;;;2.60;;
79047;SDS011;68680;50.764;6.120;2023-11-19T06:34:20;16.25;;;2.40;;
79047;SDS011;68680;50.764;6.120;2023-11-19T06:36:45;19.58;;;3.15;;
79047;SDS011;68680;50.764;6.120;2023-11-19T06:39:11;17.75;;;2.30;;
79047;SDS011;68680;50.764;6.120;2023-11-19T06:41:36;30.67;;;6.95;;
79047;SDS011;68680;50.764;6.120;2023-11-19T06:44:04;25.08;;;7.07;;
79047;SDS011;68680;50.764;6.120;2023-11-19T06:46:30;17.02;;;3.22;;
79047;SDS011;68680;50.764;6.120;2023-11-19T06:48:55;21.13;;;2.63;;
79047;SDS011;68680;50.764;6.120;2023-11-19T06:51:21;22.60;;;3.20;;
79047;SDS011;68680;50.764;6.120;2023-11-19T06:53:47;23.38;;;3.92;;
79047;SDS011;68680;50.764;6.120;2023-11-19T06:56:19;24.05;;;4.50;;
79047;SDS011;68680;50.764;6.120;2023-11-19T06:58:45;23.80;;;4.03;;
79047;SDS011;68680;50.764;6.120;2023-11-19T07:01:12;18.15;;;3.38;;
79047;SDS011;68680;50.764;6.120;2023-11-19T07:03:38;22.20;;;4.85;;
79047;SDS011;68680;50.764;6.120;2023-11-19T07:06:04;28.75;;;4.05;;
79047;SDS011;68680;50.764;6.120;2023-11-19T07:08:30;18.65;;;3.25;;
79047;SDS011;68680;50.764;6.120;2023-11-19T07:10:55;18.88;;;3.25;;
79047;SDS011;68680;50.764;6.120;2023-11-19T07:13:21;22.80;;;3.67;;
79047;SDS011;68680;50.764;6.120;2023-11-19T07:15:47;21.88;;;4.03;;
79047;SDS011;68680;50.764;6.120;2023-11-19T07:18:13;17.42;;;3.72;;
79047;SDS011;68680;50.764;6.120;2023-11-19T07:20:39;17.92;;;4.00;;
79047;SDS011;68680;50.764;6.120;2023-11-19T07:23:05;33.17;;;5.40;;
79047;SDS011;68680;50.764;6.120;2023-11-19T07:25:30;34.08;;;6.50;;
79047;SDS011;68680;50.764;6.120;2023-11-19T07:27:56;23.45;;;4.63;;
79047;SDS011;68680;50.764;6.120;2023-11-19T07:30:22;34.97;;;4.55;;
79047;SDS011;68680;50.764;6.120;2023-11-19T07:32:47;18.77;;;4.03;;
79047;SDS011;68680;50.764;6.120;2023-11-19T07:35:14;23.13;;;4.90;;
79047;SDS011;68680;50.764;6.120;2023-11-19T07:37:40;24.77;;;3.85;;
79047;SDS011;68680;50.764;6.120;2023-11-19T07:40:06;33.78;;;3.60;;
79047;SDS011;68680;50.764;6.120;2023-11-19T07:42:32;25.38;;;4.70;;
79047;SDS011;68680;50.764;6.120;2023-11-19T07:44:58;24.83;;;5.00;;
79047;SDS011;68680;50.764;6.120;2023-11-19T07:47:23;33.28;;;4.07;;
79047;SDS011;68680;50.764;6.120;2023-11-19T07:49:49;28.08;;;4.35;;
79047;SDS011;68680;50.764;6.120;2023-11-19T07:52:17;25.73;;;4.57;;
79047;SDS011;68680;50.764;6.120;2023-11-19T07:54:42;30.20;;;5.05;;
79047;SDS011;68680;50.764;6.120;2023-11-19T07:57:08;33.42;;;4.43;;
79047;SDS011;68680;50.764;6.120;2023-11-19T07:59:34;25.70;;;5.03;;
79047;SDS011;68680;50.764;6.120;2023-11-19T08:01:59;25.92;;;3.83;;
79047;SDS011;68680;50.764;6.120;2023-11-19T08:04:25;24.60;;;3.67;;
79047;SDS011;68680;50.764;6.120;2023-11-19T08:06:50;18.15;;;3.15;;
79047;SDS011;68680;50.764;6.120;2023-11-19T08:09:17;23.48;;;5.00;;
79047;SDS011;68680;50.764;6.120;2023-11-19T08:11:43;23.13;;;4.03;;
79047;SDS011;68680;50.764;6.120;2023-11-19T08:14:08;24.15;;;3.28;;
79047;SDS011;68680;50.764;6.120;2023-11-19T08:16:34;23.13;;;4.57;;
79047;SDS011;68680;50.764;6.120;2023-11-19T08:19:00;28.45;;;3.72;;
79047;SDS011;68680;50.764;6.120;2023-11-19T08:21:25;28.05;;;3.90;;
79047;SDS011;68680;50.764;6.120;2023-11-19T08:23:51;29.10;;;3.90;;
79047;SDS011;68680;50.764;6.120;2023-11-19T08:26:18;26.75;;;5.13;;
79047;SDS011;68680;50.764;6.120;2023-11-19T08:28:44;29.52;;;4.47;;
79047;SDS011;68680;50.764;6.120;2023-11-19T08:31:09;29.13;;;6.13;;
79047;SDS011;68680;50.764;6.120;2023-11-19T08:33:35;28.65;;;4.65;;
79047;SDS011;68680;50.764;6.120;2023-11-19T08:36:00;28.98;;;4.22;;
79047;SDS011;68680;50.764;6.120;2023-11-19T08:38:26;26.17;;;4.97;;
79047;SDS011;68680;50.764;6.120;2023-11-19T08:40:51;25.88;;;5.53;;
79047;SDS011;68680;50.764;6.120;2023-11-19T08:43:18;22.85;;;4.07;;
79047;SDS011;68680;50.764;6.120;2023-11-19T08:45:44;24.30;;;4.63;;
79047;SDS011;68680;50.764;6.120;2023-11-19T08:48:10;30.73;;;4.75;;
79047;SDS011;68680;50.764;6.120;2023-11-19T08:50:35;24.75;;;4.15;;
79047;SDS011;68680;50.764;6.120;2023-11-19T08:53:01;25.50;;;4.50;;
79047;SDS011;68680;50.764;6.120;2023-11-19T08:55:26;22.77;;;3.60;;
79047;SDS011;68680;50.764;6.120;2023-11-19T08:57:52;24.83;;;3.60;;
79047;SDS011;68680;50.764;6.120;2023-11-19T09:00:19;24.13;;;4.53;;
79047;SDS011;68680;50.764;6.120;2023-11-19T09:02:45;27.33;;;3.70;;
79047;SDS011;68680;50.764;6.120;2023-11-19T09:05:10;26.50;;;3.75;;
79047;SDS011;68680;50.764;6.120;2023-11-19T09:07:36;27.40;;;4.18;;
79047;SDS011;68680;50.764;6.120;2023-11-19T09:10:02;22.55;;;4.70;;
79047;SDS011;68680;50.764;6.120;2023-11-19T09:12:27;18.90;;;4.05;;
79047;SDS011;68680;50.764;6.120;2023-11-19T09:14:53;22.60;;;3.88;;
79047;SDS011;68680;50.764;6.120;2023-11-19T09:17:20;27.02;;;4.07;;
79047;SDS011;68680;50.764;6.120;2023-11-19T09:19:45;21.60;;;4.05;;
79047;SDS011;68680;50.764;6.120;2023-11-19T09:22:11;28.00;;;4.40;;
79047;SDS011;68680;50.764;6.120;2023-11-19T09:24:37;27.65;;;3.67;;
79047;SDS011;68680;50.764;6.120;2023-11-19T09:27:02;17.35;;;3.63;;
79047;SDS011;68680;50.764;6.120;2023-11-19T09:29:31;19.98;;;4.30;;
79047;SDS011;68680;50.764;6.120;2023-11-19T09:31:56;28.25;;;4.43;;
79047;SDS011;68680;50.764;6.120;2023-11-19T09:34:23;19.45;;;3.47;;
79047;SDS011;68680;50.764;6.120;2023-11-19T09:36:49;23.85;;;3.50;;
79047;SDS011;68680;50.764;6.120;2023-11-19T09:39:15;24.60;;;4.10;;
79047;SDS011;68680;50.764;6.120;2023-11-19T09:41:40;18.80;;;3.38;;
79047;SDS011;68680;50.764;6.120;2023-11-19T09:44:06;22.80;;;3.45;;
79047;SDS011;68680;50.764;6.120;2023-11-19T09:46:32;31.33;;;4.95;;
79047;SDS011;68680;50.764;6.120;2023-11-19T09:48:58;23.20;;;4.25;;
79047;SDS011;68680;50.764;6.120;2023-11-19T09:51:27;26.63;;;3.60;;
79047;SDS011;68680;50.764;6.120;2023-11-19T09:53:53;22.20;;;3.15;;
79047;SDS011;68680;50.764;6.120;2023-11-19T09:56:19;22.08;;;3.58;;
79047;SDS011;68680;50.764;6.120;2023-11-19T09:58:44;30.98;;;4.20;;
79047;SDS011;68680;50.764;6.120;2023-11-19T10:01:10;21.00;;;3.75;;
79047;SDS011;68680;50.764;6.120;2023-11-19T10:03:36;25.67;;;3.45;;
79047;SDS011;68680;50.764;6.120;2023-11-19T10:06:02;25.27;;;3.70;;
79047;SDS011;68680;50.764;6.120;2023-11-19T10:08:29;24.27;;;3.38;;
79047;SDS011;68680;50.764;6.120;2023-11-19T10:10:55;22.80;;;5.45;;
79047;SDS011;68680;50.764;6.120;2023-11-19T10:13:22;22.83;;;4.25;;
79047;SDS011;68680;50.764;6.120;2023-11-19T10:15:51;19.85;;;3.50;;
79047;SDS011;68680;50.764;6.120;2023-11-19T10:18:17;26.13;;;5.38;;
79047;SDS011;68680;50.764;6.120;2023-11-19T10:20:43;29.25;;;4.07;;
79047;SDS011;68680;50.764;6.120;2023-11-19T10:23:08;21.63;;;3.42;;
79047;SDS011;68680;50.764;6.120;2023-11-19T10:25:35;24.58;;;4.80;;
79047;SDS011;68680;50.764;6.120;2023-11-19T10:28:01;24.75;;;3.90;;
79047;SDS011;68680;50.764;6.120;2023-11-19T10:30:27;20.88;;;3.42;;
79047;SDS011;68680;50.764;6.120;2023-11-19T10:33:03;22.58;;;4.97;;
79047;SDS011;68680;50.764;6.120;2023-11-19T10:35:30;16.75;;;3.38;;
79047;SDS011;68680;50.764;6.120;2023-11-19T10:37:56;23.45;;;4.60;;
79047;SDS011;68680;50.764;6.120;2023-11-19T10:40:25;23.20;;;3.55;;
79047;SDS011;68680;50.764;6.120;2023-11-19T10:43:04;24.00;;;3.70;;
79047;SDS011;68680;50.764;6.120;2023-11-19T10:45:30;17.65;;;3.35;;
79047;SDS011;68680;50.764;6.120;2023-11-19T10:47:55;24.83;;;2.95;;
79047;SDS011;68680;50.764;6.120;2023-11-19T10:50:22;23.25;;;2.97;;
79047;SDS011;68680;50.764;6.120;2023-11-19T10:52:48;20.33;;;3.90;;
79047;SDS011;68680;50.764;6.120;2023-11-19T10:55:15;25.08;;;3.30;;
79047;SDS011;68680;50.764;6.120;2023-11-19T10:57:48;19.67;;;2.95;;
79047;SDS011;68680;50.764;6.120;2023-11-19T11:00:15;21.45;;;4.20;;
79047;SDS011;68680;50.764;6.120;2023-11-19T11:02:44;27.20;;;4.68;;
79047;SDS011;68680;50.764;6.120;2023-11-19T11:05:14;19.00;;;3.70;;
79047;SDS011;68680;50.764;6.120;2023-11-19T11:07:41;17.63;;;3.20;;
79047;SDS011;68680;50.764;6.120;2023-11-19T11:10:09;29.08;;;5.05;;
79047;SDS011;68680;50.764;6.120;2023-11-19T11:12:36;20.30;;;3.22;;
79047;SDS011;68680;50.764;6.120;2023-11-19T11:15:04;12.30;;;2.72;;
79047;SDS011;68680;50.764;6.120;2023-11-19T11:17:31;22.23;;;3.97;;
79047;SDS011;68680;50.764;6.120;2023-11-19T11:19:58;23.45;;;3.58;;
79047;SDS011;68680;50.764;6.120;2023-11-19T11:22:24;14.15;;;3.47;;
79047;SDS011;68680;50.764;6.120;2023-11-19T11:27:49;21.90;;;5.50;;
79047;SDS011;68680;50.764;6.120;2023-11-19T11:30:28;18.00;;;3.05;;
79047;SDS011;68680;50.764;6.120;2023-11-19T11:33:03;16.83;;;4.13;;
79047;SDS011;68680;50.764;6.120;2023-11-19T11:35:45;23.48;;;3.40;;
79047;SDS011;68680;50.764;6.120;2023-11-19T11:38:18;26.25;;;4.70;;
79047;SDS011;68680;50.764;6.120;2023-11-19T11:40:55;24.58;;;3.03;;
79047;SDS011;68680;50.764;6.120;2023-11-19T11:43:43;22.10;;;3.78;;
79047;SDS011;68680;50.764;6.120;2023-11-19T11:46:10;23.75;;;3.20;;
79047;SDS011;68680;50.764;6.120;2023-11-19T11:49:14;22.63;;;3.90;;
79047;SDS011;68680;50.764;6.120;2023-11-19T11:51:57;24.40;;;4.22;;
79047;SDS011;68680;50.764;6.120;2023-11-19T11:54:27;24.02;;;4.00;;
79047;SDS011;68680;50.764;6.120;2023-11-19T11:57:03;15.75;;;2.70;;
79047;SDS011;68680;50.764;6.120;2023-11-19T11:59:36;20.25;;;3.35;;
79047;SDS011;68680;50.764;6.120;2023-11-19T12:02:04;17.10;;;2.85;;
79047;SDS011;68680;50.764;6.120;2023-11-19T12:04:33;15.38;;;2.63;;
79047;SDS011;68680;50.764;6.120;2023-11-19T12:07:02;18.70;;;4.45;;
79047;SDS011;68680;50.764;6.120;2023-11-19T12:09:29;15.93;;;4.72;;
79047;SDS011;68680;50.764;6.120;2023-11-19T12:12:07;21.98;;;3.28;;
79047;SDS011;68680;50.764;6.120;2023-11-19T12:17:46;20.15;;;3.22;;
79047;SDS011;68680;50.764;6.120;2023-11-19T12:20:12;24.35;;;3.85;;
79047;SDS011;68680;50.764;6.120;2023-11-19T12:22:38;24.90;;;3.75;;
79047;SDS011;68680;50.764;6.120;2023-11-19T12:25:05;23.40;;;4.25;;
79047;SDS011;68680;50.764;6.120;2023-11-19T12:27:34;23.52;;;4.28;;
79047;SDS011;68680;50.764;6.120;2023-11-19T12:30:00;24.90;;;2.80;;
79047;SDS011;68680;50.764;6.120;2023-11-19T12:32:25;25.33;;;4.45;;
79047;SDS011;68680;50.764;6.120;2023-11-19T12:34:52;16.90;;;3.15;;
79047;SDS011;68680;50.764;6.120;2023-11-19T12:37:18;22.00;;;4.40;;
79047;SDS011;68680;50.764;6.120;2023-11-19T12:39:43;28.33;;;4.88;;
79047;SDS011;68680;50.764;6.120;2023-11-19T12:42:09;17.20;;;3.28;;
79047;SDS011;68680;50.764;6.120;2023-11-19T12:44:35;22.35;;;4.05;;
79047;SDS011;68680;50.764;6.120;2023-11-19T12:47:01;16.85;;;3.00;;
79047;SDS011;68680;50.764;6.120;2023-11-19T12:49:28;26.70;;;4.07;;
79047;SDS011;68680;50.764;6.120;2023-11-19T12:51:54;21.00;;;3.13;;
79047;SDS011;68680;50.764;6.120;2023-11-19T12:54:30;15.65;;;2.58;;
79047;SDS011;68680;50.764;6.120;2023-11-19T12:56:57;26.80;;;3.50;;
79047;SDS011;68680;50.764;6.120;2023-11-19T12:59:22;17.90;;;3.00;;
79047;SDS011;68680;50.764;6.120;2023-11-19T13:01:54;21.92;;;5.07;;
79047;SDS011;68680;50.764;6.120;2023-11-19T13:04:20;20.92;;;3.55;;
79047;SDS011;68680;50.764;6.120;2023-11-19T13:06:45;27.17;;;3.58;;
79047;SDS011;68680;50.764;6.120;2023-11-19T13:09:22;18.80;;;2.80;;
79047;SDS011;68680;50.764;6.120;2023-11-19T13:11:47;21.05;;;2.83;;
79047;SDS011;68680;50.764;6.120;2023-11-19T13:14:13;20.13;;;3.28;;
79047;SDS011;68680;50.764;6.120;2023-11-19T13:16:39;18.83;;;2.58;;
79047;SDS011;68680;50.764;6.120;2023-11-19T13:19:04;20.48;;;2.95;;
79047;SDS011;68680;50.764;6.120;2023-11-19T13:21:30;15.48;;;3.92;;
79047;SDS011;68680;50.764;6.120;2023-11-19T13:23:56;27.23;;;3.20;;
79047;SDS011;68680;50.764;6.120;2023-11-19T13:26:23;19.33;;;2.60;;
79047;SDS011;68680;50.764;6.120;2023-11-19T13:28:48;22.60;;;2.55;;
79047;SDS011;68680;50.764;6.120;2023-11-19T13:31:14;12.50;;;3.13;;
79047;SDS011;68680;50.764;6.120;2023-11-19T13:33:40;14.80;;;2.72;;
79047;SDS011;68680;50.764;6.120;2023-11-19T13:36:06;20.05;;;3.53;;
79047;SDS011;68680;50.764;6.120;2023-11-19T13:38:32;18.73;;;3.60;;
79047;SDS011;68680;50.764;6.120;2023-11-19T13:40:58;18.85;;;2.88;;
79047;SDS011;68680;50.764;6.120;2023-11-19T13:43:25;17.40;;;2.85;;
79047;SDS011;68680;50.764;6.120;2023-11-19T13:45:51;17.88;;;3.20;;
79047;SDS011;68680;50.764;6.120;2023-11-19T13:48:16;22.88;;;3.25;;
79047;SDS011;68680;50.764;6.120;2023-11-19T13:50:42;13.40;;;2.22;;
79047;SDS011;68680;50.764;6.120;2023-11-19T13:53:07;18.70;;;3.75;;
79047;SDS011;68680;50.764;6.120;2023-11-19T13:55:33;15.15;;;2.42;;
79047;SDS011;68680;50.764;6.120;2023-11-19T13:57:58;16.48;;;2.20;;
79047;SDS011;68680;50.764;6.120;2023-11-19T14:00:25;19.10;;;2.15;;
79047;SDS011;68680;50.764;6.120;2023-11-19T14:02:51;23.08;;;3.80;;
79047;SDS011;68680;50.764;6.120;2023-11-19T14:05:17;21.23;;;3.45;;
79047;SDS011;68680;50.764;6.120;2023-11-19T14:07:42;18.90;;;2.85;;
79047;SDS011;68680;50.764;6.120;2023-11-19T14:10:09;19.88;;;2.60;;
79047;SDS011;68680;50.764;6.120;2023-11-19T14:12:35;33.72;;;5.22;;
79047;SDS011;68680;50.764;6.120;2023-11-19T14:15:00;18.70;;;4.07;;
79047;SDS011;68680;50.764;6.120;2023-11-19T14:17:27;20.40;;;2.88;;
79047;SDS011;68680;50.764;6.120;2023-11-19T14:19:53;22.08;;;4.07;;
79047;SDS011;68680;50.764;6.120;2023-11-19T14:22:19;18.42;;;3.50;;
79047;SDS011;68680;50.764;6.120;2023-11-19T14:24:44;17.60;;;2.97;;
79047;SDS011;68680;50.764;6.120;2023-11-19T14:27:10;22.63;;;3.65;;
79047;SDS011;68680;50.764;6.120;2023-11-19T14:29:35;17.92;;;2.70;;
79047;SDS011;68680;50.764;6.120;2023-11-19T14:32:01;20.23;;;3.28;;
79047;SDS011;68680;50.764;6.120;2023-11-19T14:34:29;14.25;;;3.20;;
79047;SDS011;68680;50.764;6.120;2023-11-19T14:36:54;24.77;;;4.10;;
79047;SDS011;68680;50.764;6.120;2023-11-19T14:39:20;19.98;;;2.78;;